sensor_id;sensor_type;location;lat;lon;timestamp;P1;durP1;ratioP1;P2;durP2;ratioP2
13457;SDS011;6801;53.018;11.560;2022-12-18T00:00:03;27.42;;;11.18;;
13457;SDS011;6801;53.018;11.560;2022-12-18T00:02:39;27.35;;;11.43;;
13457;SDS011;6801;53.018;11.560;2022-12-18T00:05:06;28.42;;;12.23;;
13457;SDS011;6801;53.018;11.560;2022-12-18T00:07:33;29.08;;;12.43;;
13457;SDS011;6801;53.018;11.560;2022-12-18T00:10:01;30.92;;;12.65;;
13457;SDS011;6801;53.018;11.560;2022-12-18T00:12:29;28.13;;;11.43;;
13457;SDS011;6801;53.018;11.560;2022-12-18T00:14:56;27.70;;;11.35;;
13457;SDS011;6801;53.018;11.560;2022-12-18T00:17:24;39.95;;;14.85;;
13457;SDS011;6801;53.018;11.560;2022-12-18T00:19:52;45.13;;;22.17;;
13457;SDS011;6801;53.018;11.560;2022-12-18T00:22:20;37.38;;;18.20;;
13457;SDS011;6801;53.018;11.560;2022-12-18T00:24:47;42.45;;;17.95;;
13457;SDS011;6801;53.018;11.560;2022-12-18T00:27:14;31.25;;;12.40;;
13457;SDS011;6801;53.018;11.560;2022-12-18T00:29:42;32.42;;;13.18;;
13457;SDS011;6801;53.018;11.560;2022-12-18T00:32:09;33.60;;;14.55;;
13457;SDS011;6801;53.018;11.560;2022-12-18T00:34:38;36.50;;;14.00;;
13457;SDS011;6801;53.018;11.560;2022-12-18T00:37:07;31.42;;;14.23;;
13457;SDS011;6801;53.018;11.560;2022-12-18T00:39:35;28.05;;;12.23;;
13457;SDS011;6801;53.018;11.560;2022-12-18T00:42:02;29.13;;;12.23;;
13457;SDS011;6801;53.018;11.560;2022-12-18T00:44:53;28.42;;;11.77;;
13457;SDS011;6801;53.018;11.560;2022-12-18T00:47:20;25.25;;;11.00;;
13457;SDS011;6801;53.018;11.560;2022-12-18T00:49:49;30.85;;;13.23;;
13457;SDS011;6801;53.018;11.560;2022-12-18T00:52:16;35.72;;;14.88;;
13457;SDS011;6801;53.018;11.560;2022-12-18T00:54:43;34.05;;;14.25;;
13457;SDS011;6801;53.018;11.560;2022-12-18T00:57:10;34.88;;;13.40;;
13457;SDS011;6801;53.018;11.560;2022-12-18T00:59:38;40.22;;;14.63;;
13457;SDS011;6801;53.018;11.560;2022-12-18T01:02:05;32.33;;;12.98;;
13457;SDS011;6801;53.018;11.560;2022-12-18T01:04:32;30.00;;;12.00;;
13457;SDS011;6801;53.018;11.560;2022-12-18T01:07:01;29.05;;;12.60;;
13457;SDS011;6801;53.018;11.560;2022-12-18T01:09:28;28.90;;;10.70;;
13457;SDS011;6801;53.018;11.560;2022-12-18T01:11:56;31.90;;;12.73;;
13457;SDS011;6801;53.018;11.560;2022-12-18T01:14:23;35.10;;;14.07;;
13457;SDS011;6801;53.018;11.560;2022-12-18T01:16:52;36.85;;;14.20;;
13457;SDS011;6801;53.018;11.560;2022-12-18T01:19:19;36.30;;;16.58;;
13457;SDS011;6801;53.018;11.560;2022-12-18T01:21:46;36.53;;;17.88;;
13457;SDS011;6801;53.018;11.560;2022-12-18T01:24:16;27.17;;;12.85;;
13457;SDS011;6801;53.018;11.560;2022-12-18T01:26:44;37.67;;;15.98;;
13457;SDS011;6801;53.018;11.560;2022-12-18T01:29:13;35.17;;;16.23;;
13457;SDS011;6801;53.018;11.560;2022-12-18T01:31:40;32.58;;;13.88;;
13457;SDS011;6801;53.018;11.560;2022-12-18T01:34:08;25.95;;;11.68;;
13457;SDS011;6801;53.018;11.560;2022-12-18T01:36:37;30.55;;;12.25;;
13457;SDS011;6801;53.018;11.560;2022-12-18T01:39:05;32.78;;;14.18;;
13457;SDS011;6801;53.018;11.560;2022-12-18T01:41:36;35.63;;;12.90;;
13457;SDS011;6801;53.018;11.560;2022-12-18T01:47:25;27.13;;;10.63;;
13457;SDS011;6801;53.018;11.560;2022-12-18T01:49:55;29.98;;;12.48;;
13457;SDS011;6801;53.018;11.560;2022-12-18T01:52:25;31.08;;;13.48;;
13457;SDS011;6801;53.018;11.560;2022-12-18T01:54:55;27.60;;;12.68;;
13457;SDS011;6801;53.018;11.560;2022-12-18T01:57:26;29.07;;;11.10;;
13457;SDS011;6801;53.018;11.560;2022-12-18T01:59:55;31.05;;;11.60;;
13457;SDS011;6801;53.018;11.560;2022-12-18T02:02:38;27.83;;;10.70;;
13457;SDS011;6801;53.018;11.560;2022-12-18T02:05:07;33.78;;;13.38;;
13457;SDS011;6801;53.018;11.560;2022-12-18T02:07:38;25.20;;;10.68;;
13457;SDS011;6801;53.018;11.560;2022-12-18T02:10:13;25.88;;;11.95;;
13457;SDS011;6801;53.018;11.560;2022-12-18T02:12:49;29.52;;;12.38;;
13457;SDS011;6801;53.018;11.560;2022-12-18T02:15:24;35.20;;;12.63;;
13457;SDS011;6801;53.018;11.560;2022-12-18T02:17:58;25.88;;;9.95;;
13457;SDS011;6801;53.018;11.560;2022-12-18T02:20:32;24.10;;;10.63;;
13457;SDS011;6801;53.018;11.560;2022-12-18T02:23:05;27.70;;;11.82;;
13457;SDS011;6801;53.018;11.560;2022-12-18T02:25:51;26.52;;;12.30;;
13457;SDS011;6801;53.018;11.560;2022-12-18T02:28:28;29.05;;;13.32;;
13457;SDS011;6801;53.018;11.560;2022-12-18T02:31:04;24.70;;;9.43;;
13457;SDS011;6801;53.018;11.560;2022-12-18T02:33:35;32.78;;;14.27;;
13457;SDS011;6801;53.018;11.560;2022-12-18T02:36:06;30.02;;;11.52;;
13457;SDS011;6801;53.018;11.560;2022-12-18T02:38:36;28.42;;;12.23;;
13457;SDS011;6801;53.018;11.560;2022-12-18T02:41:12;27.88;;;11.07;;
13457;SDS011;6801;53.018;11.560;2022-12-18T02:43:45;32.60;;;13.65;;
13457;SDS011;6801;53.018;11.560;2022-12-18T02:46:27;27.73;;;10.60;;
13457;SDS011;6801;53.018;11.560;2022-12-18T02:49:06;26.75;;;11.57;;
13457;SDS011;6801;53.018;11.560;2022-12-18T02:51:50;29.42;;;13.07;;
13457;SDS011;6801;53.018;11.560;2022-12-18T02:54:30;32.55;;;11.45;;
13457;SDS011;6801;53.018;11.560;2022-12-18T02:57:13;25.70;;;11.38;;
13457;SDS011;6801;53.018;11.560;2022-12-18T02:59:47;30.55;;;13.40;;
13457;SDS011;6801;53.018;11.560;2022-12-18T03:02:23;27.55;;;11.50;;
13457;SDS011;6801;53.018;11.560;2022-12-18T03:04:57;30.10;;;12.75;;
13457;SDS011;6801;53.018;11.560;2022-12-18T03:07:29;29.15;;;13.02;;
13457;SDS011;6801;53.018;11.560;2022-12-18T03:10:07;30.45;;;10.68;;
13457;SDS011;6801;53.018;11.560;2022-12-18T03:12:40;23.75;;;10.20;;
13457;SDS011;6801;53.018;11.560;2022-12-18T03:15:13;30.75;;;12.32;;
13457;SDS011;6801;53.018;11.560;2022-12-18T03:17:46;24.40;;;10.30;;
13457;SDS011;6801;53.018;11.560;2022-12-18T03:20:19;25.10;;;10.82;;
13457;SDS011;6801;53.018;11.560;2022-12-18T03:22:49;32.53;;;13.73;;
13457;SDS011;6801;53.018;11.560;2022-12-18T03:25:20;29.08;;;11.30;;
13457;SDS011;6801;53.018;11.560;2022-12-18T03:27:54;31.40;;;13.88;;
13457;SDS011;6801;53.018;11.560;2022-12-18T03:30:23;32.88;;;12.63;;
13457;SDS011;6801;53.018;11.560;2022-12-18T03:32:53;29.95;;;13.48;;
13457;SDS011;6801;53.018;11.560;2022-12-18T03:35:28;31.25;;;13.40;;
13457;SDS011;6801;53.018;11.560;2022-12-18T03:37:58;27.80;;;12.20;;
13457;SDS011;6801;53.018;11.560;2022-12-18T03:40:26;28.33;;;10.80;;
13457;SDS011;6801;53.018;11.560;2022-12-18T03:43:03;31.25;;;12.88;;
13457;SDS011;6801;53.018;11.560;2022-12-18T03:45:36;31.95;;;12.85;;
13457;SDS011;6801;53.018;11.560;2022-12-18T03:48:08;32.53;;;13.57;;
13457;SDS011;6801;53.018;11.560;2022-12-18T03:50:47;29.65;;;12.73;;
13457;SDS011;6801;53.018;11.560;2022-12-18T03:53:24;31.45;;;12.68;;
13457;SDS011;6801;53.018;11.560;2022-12-18T03:55:58;36.90;;;14.05;;
13457;SDS011;6801;53.018;11.560;2022-12-18T03:58:33;28.58;;;12.10;;
13457;SDS011;6801;53.018;11.560;2022-12-18T04:01:13;28.70;;;10.68;;
13457;SDS011;6801;53.018;11.560;2022-12-18T04:03:43;30.53;;;12.43;;
13457;SDS011;6801;53.018;11.560;2022-12-18T04:06:13;30.20;;;11.10;;
13457;SDS011;6801;53.018;11.560;2022-12-18T04:08:43;34.42;;;13.18;;
13457;SDS011;6801;53.018;11.560;2022-12-18T04:11:14;33.72;;;13.02;;
13457;SDS011;6801;53.018;11.560;2022-12-18T04:13:45;29.58;;;12.73;;
13457;SDS011;6801;53.018;11.560;2022-12-18T04:16:20;25.83;;;9.65;;
13457;SDS011;6801;53.018;11.560;2022-12-18T04:18:51;33.50;;;13.50;;
13457;SDS011;6801;53.018;11.560;2022-12-18T04:21:19;42.90;;;18.38;;
13457;SDS011;6801;53.018;11.560;2022-12-18T04:23:48;82.07;;;33.53;;
13457;SDS011;6801;53.018;11.560;2022-12-18T04:26:18;37.45;;;17.42;;
13457;SDS011;6801;53.018;11.560;2022-12-18T04:28:57;32.88;;;12.90;;
13457;SDS011;6801;53.018;11.560;2022-12-18T04:31:24;31.73;;;13.70;;
13457;SDS011;6801;53.018;11.560;2022-12-18T04:33:52;31.88;;;12.98;;
13457;SDS011;6801;53.018;11.560;2022-12-18T04:36:19;34.35;;;13.25;;
13457;SDS011;6801;53.018;11.560;2022-12-18T04:38:46;29.05;;;14.43;;
13457;SDS011;6801;53.018;11.560;2022-12-18T04:41:15;31.73;;;13.60;;
13457;SDS011;6801;53.018;11.560;2022-12-18T04:43:46;31.33;;;12.40;;
13457;SDS011;6801;53.018;11.560;2022-12-18T04:46:15;32.72;;;13.63;;
13457;SDS011;6801;53.018;11.560;2022-12-18T04:48:44;32.72;;;15.27;;
13457;SDS011;6801;53.018;11.560;2022-12-18T04:51:13;32.38;;;13.70;;
13457;SDS011;6801;53.018;11.560;2022-12-18T04:53:41;36.10;;;13.43;;
13457;SDS011;6801;53.018;11.560;2022-12-18T04:56:09;35.10;;;15.35;;
13457;SDS011;6801;53.018;11.560;2022-12-18T04:58:39;35.58;;;16.70;;
13457;SDS011;6801;53.018;11.560;2022-12-18T05:01:08;36.05;;;16.98;;
13457;SDS011;6801;53.018;11.560;2022-12-18T05:03:38;32.28;;;13.50;;
13457;SDS011;6801;53.018;11.560;2022-12-18T05:06:05;36.10;;;14.55;;
13457;SDS011;6801;53.018;11.560;2022-12-18T05:08:33;35.95;;;16.83;;
13457;SDS011;6801;53.018;11.560;2022-12-18T05:11:01;33.17;;;14.18;;
13457;SDS011;6801;53.018;11.560;2022-12-18T05:13:30;37.08;;;14.90;;
13457;SDS011;6801;53.018;11.560;2022-12-18T05:15:59;39.15;;;19.85;;
13457;SDS011;6801;53.018;11.560;2022-12-18T05:18:27;34.95;;;15.73;;
13457;SDS011;6801;53.018;11.560;2022-12-18T05:20:57;42.45;;;16.50;;
13457;SDS011;6801;53.018;11.560;2022-12-18T05:23:24;39.22;;;16.90;;
13457;SDS011;6801;53.018;11.560;2022-12-18T05:25:52;40.58;;;16.73;;
13457;SDS011;6801;53.018;11.560;2022-12-18T05:28:20;52.17;;;22.55;;
13457;SDS011;6801;53.018;11.560;2022-12-18T05:30:48;46.25;;;18.25;;
13457;SDS011;6801;53.018;11.560;2022-12-18T05:33:16;39.25;;;18.02;;
13457;SDS011;6801;53.018;11.560;2022-12-18T05:35:44;39.70;;;16.95;;
13457;SDS011;6801;53.018;11.560;2022-12-18T05:38:17;49.33;;;21.38;;
13457;SDS011;6801;53.018;11.560;2022-12-18T05:40:45;36.90;;;15.55;;
13457;SDS011;6801;53.018;11.560;2022-12-18T05:43:13;54.78;;;27.75;;
13457;SDS011;6801;53.018;11.560;2022-12-18T05:45:41;31.08;;;14.15;;
13457;SDS011;6801;53.018;11.560;2022-12-18T05:48:08;48.72;;;25.02;;
13457;SDS011;6801;53.018;11.560;2022-12-18T05:50:39;41.13;;;18.77;;
13457;SDS011;6801;53.018;11.560;2022-12-18T05:53:09;41.20;;;15.13;;
13457;SDS011;6801;53.018;11.560;2022-12-18T05:55:38;45.95;;;19.77;;
13457;SDS011;6801;53.018;11.560;2022-12-18T05:58:07;37.90;;;13.75;;
13457;SDS011;6801;53.018;11.560;2022-12-18T06:00:39;35.33;;;15.48;;
13457;SDS011;6801;53.018;11.560;2022-12-18T06:03:10;49.72;;;24.05;;
13457;SDS011;6801;53.018;11.560;2022-12-18T06:05:39;43.72;;;16.95;;
13457;SDS011;6801;53.018;11.560;2022-12-18T06:08:08;43.00;;;18.85;;
13457;SDS011;6801;53.018;11.560;2022-12-18T06:10:35;48.17;;;22.13;;
13457;SDS011;6801;53.018;11.560;2022-12-18T06:13:04;54.10;;;26.55;;
13457;SDS011;6801;53.018;11.560;2022-12-18T06:15:32;39.92;;;16.25;;
13457;SDS011;6801;53.018;11.560;2022-12-18T06:18:02;44.17;;;20.07;;
13457;SDS011;6801;53.018;11.560;2022-12-18T06:20:30;37.92;;;14.90;;
13457;SDS011;6801;53.018;11.560;2022-12-18T06:22:57;41.63;;;15.93;;
13457;SDS011;6801;53.018;11.560;2022-12-18T06:25:24;40.53;;;16.88;;
13457;SDS011;6801;53.018;11.560;2022-12-18T06:27:53;40.75;;;16.30;;
13457;SDS011;6801;53.018;11.560;2022-12-18T06:30:20;39.83;;;13.77;;
13457;SDS011;6801;53.018;11.560;2022-12-18T06:32:47;42.03;;;14.73;;
13457;SDS011;6801;53.018;11.560;2022-12-18T06:35:14;42.10;;;16.30;;
13457;SDS011;6801;53.018;11.560;2022-12-18T06:37:42;38.42;;;14.43;;
13457;SDS011;6801;53.018;11.560;2022-12-18T06:40:09;43.05;;;16.67;;
13457;SDS011;6801;53.018;11.560;2022-12-18T06:42:36;50.63;;;17.98;;
13457;SDS011;6801;53.018;11.560;2022-12-18T06:45:05;44.78;;;15.85;;
13457;SDS011;6801;53.018;11.560;2022-12-18T06:47:33;39.60;;;14.93;;
13457;SDS011;6801;53.018;11.560;2022-12-18T06:50:00;43.42;;;16.58;;
13457;SDS011;6801;53.018;11.560;2022-12-18T06:52:28;43.65;;;16.33;;
13457;SDS011;6801;53.018;11.560;2022-12-18T06:54:57;43.88;;;15.60;;
13457;SDS011;6801;53.018;11.560;2022-12-18T06:57:25;51.88;;;17.70;;
13457;SDS011;6801;53.018;11.560;2022-12-18T06:59:52;38.97;;;15.05;;
13457;SDS011;6801;53.018;11.560;2022-12-18T07:02:21;47.55;;;18.23;;
13457;SDS011;6801;53.018;11.560;2022-12-18T07:04:48;40.90;;;15.85;;
13457;SDS011;6801;53.018;11.560;2022-12-18T07:07:18;48.53;;;21.73;;
13457;SDS011;6801;53.018;11.560;2022-12-18T07:09:46;36.88;;;14.65;;
13457;SDS011;6801;53.018;11.560;2022-12-18T07:12:14;43.28;;;16.42;;
13457;SDS011;6801;53.018;11.560;2022-12-18T07:14:41;46.58;;;15.18;;
13457;SDS011;6801;53.018;11.560;2022-12-18T07:17:08;40.40;;;14.90;;
13457;SDS011;6801;53.018;11.560;2022-12-18T07:19:37;45.92;;;17.30;;
13457;SDS011;6801;53.018;11.560;2022-12-18T07:22:04;46.65;;;19.98;;
13457;SDS011;6801;53.018;11.560;2022-12-18T07:24:32;40.75;;;15.68;;
13457;SDS011;6801;53.018;11.560;2022-12-18T07:27:00;45.47;;;17.45;;
13457;SDS011;6801;53.018;11.560;2022-12-18T07:29:27;52.30;;;21.50;;
13457;SDS011;6801;53.018;11.560;2022-12-18T07:31:54;46.22;;;16.50;;
13457;SDS011;6801;53.018;11.560;2022-12-18T07:34:21;41.47;;;15.95;;
13457;SDS011;6801;53.018;11.560;2022-12-18T07:36:50;38.10;;;14.90;;
13457;SDS011;6801;53.018;11.560;2022-12-18T07:39:18;43.97;;;15.23;;
13457;SDS011;6801;53.018;11.560;2022-12-18T07:41:45;63.25;;;27.42;;
13457;SDS011;6801;53.018;11.560;2022-12-18T07:44:32;39.65;;;14.48;;
13457;SDS011;6801;53.018;11.560;2022-12-18T07:46:59;53.90;;;23.95;;
13457;SDS011;6801;53.018;11.560;2022-12-18T07:49:27;51.67;;;21.90;;
13457;SDS011;6801;53.018;11.560;2022-12-18T07:51:57;48.30;;;17.67;;
13457;SDS011;6801;53.018;11.560;2022-12-18T07:54:24;43.95;;;17.58;;
13457;SDS011;6801;53.018;11.560;2022-12-18T07:56:52;56.38;;;22.15;;
13457;SDS011;6801;53.018;11.560;2022-12-18T07:59:19;46.15;;;15.43;;
13457;SDS011;6801;53.018;11.560;2022-12-18T08:01:46;45.95;;;18.48;;
13457;SDS011;6801;53.018;11.560;2022-12-18T08:04:14;60.70;;;22.67;;
13457;SDS011;6801;53.018;11.560;2022-12-18T08:06:41;51.92;;;20.80;;
13457;SDS011;6801;53.018;11.560;2022-12-18T08:09:10;49.58;;;20.55;;
13457;SDS011;6801;53.018;11.560;2022-12-18T08:11:37;76.63;;;37.72;;
13457;SDS011;6801;53.018;11.560;2022-12-18T08:14:05;51.10;;;20.25;;
13457;SDS011;6801;53.018;11.560;2022-12-18T08:16:32;47.45;;;16.92;;
13457;SDS011;6801;53.018;11.560;2022-12-18T08:19:00;43.35;;;16.40;;
13457;SDS011;6801;53.018;11.560;2022-12-18T08:21:28;48.00;;;15.65;;
13457;SDS011;6801;53.018;11.560;2022-12-18T08:23:57;43.78;;;17.73;;
13457;SDS011;6801;53.018;11.560;2022-12-18T08:26:27;45.72;;;15.02;;
13457;SDS011;6801;53.018;11.560;2022-12-18T08:31:24;45.20;;;17.88;;
13457;SDS011;6801;53.018;11.560;2022-12-18T08:33:52;49.80;;;20.85;;
13457;SDS011;6801;53.018;11.560;2022-12-18T08:36:20;46.45;;;15.70;;
13457;SDS011;6801;53.018;11.560;2022-12-18T08:38:48;48.72;;;18.30;;
13457;SDS011;6801;53.018;11.560;2022-12-18T08:41:15;51.85;;;21.63;;
13457;SDS011;6801;53.018;11.560;2022-12-18T08:43:45;50.55;;;17.95;;
13457;SDS011;6801;53.018;11.560;2022-12-18T08:46:34;64.63;;;30.40;;
13457;SDS011;6801;53.018;11.560;2022-12-18T08:49:05;47.65;;;21.15;;
13457;SDS011;6801;53.018;11.560;2022-12-18T08:51:32;43.85;;;17.20;;
13457;SDS011;6801;53.018;11.560;2022-12-18T08:54:00;45.78;;;17.50;;
13457;SDS011;6801;53.018;11.560;2022-12-18T08:56:29;46.70;;;17.05;;
13457;SDS011;6801;53.018;11.560;2022-12-18T08:58:58;50.88;;;16.13;;
13457;SDS011;6801;53.018;11.560;2022-12-18T09:01:26;39.77;;;13.97;;
13457;SDS011;6801;53.018;11.560;2022-12-18T09:03:54;49.53;;;20.55;;
13457;SDS011;6801;53.018;11.560;2022-12-18T09:06:22;53.72;;;23.73;;
13457;SDS011;6801;53.018;11.560;2022-12-18T09:08:49;45.97;;;16.08;;
13457;SDS011;6801;53.018;11.560;2022-12-18T09:11:19;47.53;;;18.10;;
13457;SDS011;6801;53.018;11.560;2022-12-18T09:16:16;104.32;;;50.80;;
13457;SDS011;6801;53.018;11.560;2022-12-18T09:18:44;56.17;;;20.53;;
13457;SDS011;6801;53.018;11.560;2022-12-18T09:21:12;52.35;;;21.15;;
13457;SDS011;6801;53.018;11.560;2022-12-18T09:23:41;68.93;;;29.15;;
13457;SDS011;6801;53.018;11.560;2022-12-18T09:26:09;108.70;;;49.20;;
13457;SDS011;6801;53.018;11.560;2022-12-18T09:28:36;91.75;;;38.70;;
13457;SDS011;6801;53.018;11.560;2022-12-18T09:31:04;77.28;;;34.67;;
13457;SDS011;6801;53.018;11.560;2022-12-18T09:33:34;45.20;;;17.92;;
13457;SDS011;6801;53.018;11.560;2022-12-18T09:36:02;67.68;;;28.00;;
13457;SDS011;6801;53.018;11.560;2022-12-18T09:38:31;55.72;;;22.63;;
13457;SDS011;6801;53.018;11.560;2022-12-18T09:40:59;48.10;;;20.98;;
13457;SDS011;6801;53.018;11.560;2022-12-18T09:43:33;44.60;;;15.93;;
13457;SDS011;6801;53.018;11.560;2022-12-18T09:46:07;41.25;;;15.38;;
13457;SDS011;6801;53.018;11.560;2022-12-18T09:48:40;52.33;;;19.63;;
13457;SDS011;6801;53.018;11.560;2022-12-18T09:51:12;42.95;;;18.05;;
13457;SDS011;6801;53.018;11.560;2022-12-18T09:53:42;43.38;;;15.50;;
13457;SDS011;6801;53.018;11.560;2022-12-18T09:56:15;40.85;;;14.93;;
13457;SDS011;6801;53.018;11.560;2022-12-18T09:58:49;45.92;;;20.70;;
13457;SDS011;6801;53.018;11.560;2022-12-18T10:01:22;46.20;;;18.23;;
13457;SDS011;6801;53.018;11.560;2022-12-18T10:03:51;52.35;;;23.15;;
13457;SDS011;6801;53.018;11.560;2022-12-18T10:06:20;40.53;;;16.95;;
13457;SDS011;6801;53.018;11.560;2022-12-18T10:08:53;41.75;;;18.58;;
13457;SDS011;6801;53.018;11.560;2022-12-18T10:11:32;43.78;;;16.25;;
13457;SDS011;6801;53.018;11.560;2022-12-18T10:14:09;50.15;;;22.15;;
13457;SDS011;6801;53.018;11.560;2022-12-18T10:16:46;50.72;;;22.08;;
13457;SDS011;6801;53.018;11.560;2022-12-18T10:19:29;40.92;;;17.35;;
13457;SDS011;6801;53.018;11.560;2022-12-18T10:22:08;40.58;;;17.50;;
13457;SDS011;6801;53.018;11.560;2022-12-18T10:24:44;34.90;;;13.82;;
13457;SDS011;6801;53.018;11.560;2022-12-18T10:27:18;48.42;;;17.83;;
13457;SDS011;6801;53.018;11.560;2022-12-18T10:29:51;33.03;;;13.35;;
13457;SDS011;6801;53.018;11.560;2022-12-18T10:32:20;40.90;;;16.35;;
13457;SDS011;6801;53.018;11.560;2022-12-18T10:34:52;32.88;;;14.00;;
13457;SDS011;6801;53.018;11.560;2022-12-18T10:37:21;41.38;;;16.05;;
13457;SDS011;6801;53.018;11.560;2022-12-18T10:40:04;42.97;;;15.43;;
13457;SDS011;6801;53.018;11.560;2022-12-18T10:42:34;39.83;;;14.63;;
13457;SDS011;6801;53.018;11.560;2022-12-18T10:45:03;39.88;;;16.42;;
13457;SDS011;6801;53.018;11.560;2022-12-18T10:47:36;39.78;;;15.32;;
13457;SDS011;6801;53.018;11.560;2022-12-18T10:50:11;44.50;;;17.23;;
13457;SDS011;6801;53.018;11.560;2022-12-18T10:52:52;43.15;;;18.02;;
13457;SDS011;6801;53.018;11.560;2022-12-18T10:55:20;44.58;;;17.77;;
13457;SDS011;6801;53.018;11.560;2022-12-18T10:57:48;42.92;;;15.90;;
13457;SDS011;6801;53.018;11.560;2022-12-18T11:00:26;49.28;;;22.08;;
13457;SDS011;6801;53.018;11.560;2022-12-18T11:02:55;37.00;;;15.57;;
13457;SDS011;6801;53.018;11.560;2022-12-18T11:05:26;42.10;;;14.45;;
13457;SDS011;6801;53.018;11.560;2022-12-18T11:07:55;38.63;;;13.63;;
13457;SDS011;6801;53.018;11.560;2022-12-18T11:10:25;41.00;;;15.50;;
13457;SDS011;6801;53.018;11.560;2022-12-18T11:12:55;44.70;;;17.55;;
13457;SDS011;6801;53.018;11.560;2022-12-18T11:15:25;52.20;;;20.58;;
13457;SDS011;6801;53.018;11.560;2022-12-18T11:17:54;46.00;;;17.38;;
13457;SDS011;6801;53.018;11.560;2022-12-18T11:20:26;47.95;;;18.25;;
13457;SDS011;6801;53.018;11.560;2022-12-18T11:22:59;46.35;;;19.65;;
13457;SDS011;6801;53.018;11.560;2022-12-18T11:25:27;45.42;;;17.48;;
13457;SDS011;6801;53.018;11.560;2022-12-18T11:27:56;52.55;;;19.73;;
13457;SDS011;6801;53.018;11.560;2022-12-18T11:30:25;47.13;;;19.45;;
13457;SDS011;6801;53.018;11.560;2022-12-18T11:32:55;55.85;;;23.73;;
13457;SDS011;6801;53.018;11.560;2022-12-18T11:35:39;49.42;;;19.63;;
13457;SDS011;6801;53.018;11.560;2022-12-18T11:38:17;46.55;;;17.63;;
13457;SDS011;6801;53.018;11.560;2022-12-18T11:40:51;48.60;;;16.67;;
13457;SDS011;6801;53.018;11.560;2022-12-18T11:43:26;58.28;;;18.98;;
13457;SDS011;6801;53.018;11.560;2022-12-18T11:45:56;59.67;;;21.15;;
13457;SDS011;6801;53.018;11.560;2022-12-18T11:48:30;53.05;;;21.02;;
13457;SDS011;6801;53.018;11.560;2022-12-18T11:51:02;52.22;;;22.20;;
13457;SDS011;6801;53.018;11.560;2022-12-18T11:53:35;52.53;;;18.58;;
13457;SDS011;6801;53.018;11.560;2022-12-18T11:56:11;57.03;;;24.58;;
13457;SDS011;6801;53.018;11.560;2022-12-18T11:58:54;40.13;;;16.70;;
13457;SDS011;6801;53.018;11.560;2022-12-18T12:01:34;48.88;;;19.33;;
13457;SDS011;6801;53.018;11.560;2022-12-18T12:04:16;47.33;;;17.92;;
13457;SDS011;6801;53.018;11.560;2022-12-18T12:07:02;59.38;;;24.42;;
13457;SDS011;6801;53.018;11.560;2022-12-18T12:09:45;56.55;;;25.75;;
13457;SDS011;6801;53.018;11.560;2022-12-18T12:12:27;45.53;;;20.17;;
13457;SDS011;6801;53.018;11.560;2022-12-18T12:15:13;98.70;;;45.60;;
13457;SDS011;6801;53.018;11.560;2022-12-18T12:20:21;39.40;;;16.20;;
13457;SDS011;6801;53.018;11.560;2022-12-18T12:22:56;55.50;;;26.23;;
13457;SDS011;6801;53.018;11.560;2022-12-18T12:25:30;45.53;;;21.02;;
13457;SDS011;6801;53.018;11.560;2022-12-18T12:28:06;94.30;;;36.63;;
13457;SDS011;6801;53.018;11.560;2022-12-18T12:30:44;37.72;;;16.48;;
13457;SDS011;6801;53.018;11.560;2022-12-18T12:33:22;41.67;;;18.15;;
13457;SDS011;6801;53.018;11.560;2022-12-18T12:36:02;33.45;;;14.73;;
13457;SDS011;6801;53.018;11.560;2022-12-18T12:38:43;42.20;;;17.77;;
13457;SDS011;6801;53.018;11.560;2022-12-18T12:41:16;42.00;;;17.70;;
13457;SDS011;6801;53.018;11.560;2022-12-18T12:44:04;32.67;;;15.35;;
13457;SDS011;6801;53.018;11.560;2022-12-18T12:46:36;42.60;;;20.45;;
13457;SDS011;6801;53.018;11.560;2022-12-18T12:49:08;35.55;;;16.88;;
13457;SDS011;6801;53.018;11.560;2022-12-18T12:51:41;33.03;;;14.40;;
13457;SDS011;6801;53.018;11.560;2022-12-18T12:57:05;34.97;;;14.50;;
13457;SDS011;6801;53.018;11.560;2022-12-18T12:59:41;32.55;;;16.77;;
13457;SDS011;6801;53.018;11.560;2022-12-18T13:02:18;33.70;;;15.45;;
13457;SDS011;6801;53.018;11.560;2022-12-18T13:04:51;31.15;;;14.18;;
13457;SDS011;6801;53.018;11.560;2022-12-18T13:07:24;33.35;;;16.63;;
13457;SDS011;6801;53.018;11.560;2022-12-18T13:10:22;32.10;;;15.82;;
13457;SDS011;6801;53.018;11.560;2022-12-18T13:12:52;31.15;;;14.80;;
13457;SDS011;6801;53.018;11.560;2022-12-18T13:15:24;36.97;;;17.65;;
13457;SDS011;6801;53.018;11.560;2022-12-18T13:18:06;30.88;;;15.07;;
13457;SDS011;6801;53.018;11.560;2022-12-18T13:20:41;33.65;;;15.25;;
13457;SDS011;6801;53.018;11.560;2022-12-18T13:23:25;33.00;;;14.23;;
13457;SDS011;6801;53.018;11.560;2022-12-18T13:26:00;32.92;;;15.32;;
13457;SDS011;6801;53.018;11.560;2022-12-18T13:28:58;36.85;;;15.48;;
13457;SDS011;6801;53.018;11.560;2022-12-18T13:34:12;32.42;;;14.80;;
13457;SDS011;6801;53.018;11.560;2022-12-18T13:36:42;30.98;;;13.77;;
13457;SDS011;6801;53.018;11.560;2022-12-18T13:48:21;30.83;;;14.07;;
13457;SDS011;6801;53.018;11.560;2022-12-18T13:50:56;35.60;;;14.37;;
13457;SDS011;6801;53.018;11.560;2022-12-18T13:53:27;30.75;;;14.80;;
13457;SDS011;6801;53.018;11.560;2022-12-18T13:55:57;31.13;;;14.38;;
13457;SDS011;6801;53.018;11.560;2022-12-18T13:58:30;31.85;;;14.20;;
13457;SDS011;6801;53.018;11.560;2022-12-18T14:01:00;27.45;;;11.35;;
13457;SDS011;6801;53.018;11.560;2022-12-18T14:03:30;28.77;;;14.75;;
13457;SDS011;6801;53.018;11.560;2022-12-18T14:05:59;30.42;;;14.88;;
13457;SDS011;6801;53.018;11.560;2022-12-18T14:08:35;33.92;;;15.23;;
13457;SDS011;6801;53.018;11.560;2022-12-18T14:11:17;34.58;;;16.58;;
13457;SDS011;6801;53.018;11.560;2022-12-18T14:13:54;31.60;;;16.92;;
13457;SDS011;6801;53.018;11.560;2022-12-18T14:16:23;29.95;;;13.60;;
13457;SDS011;6801;53.018;11.560;2022-12-18T14:18:51;32.50;;;15.20;;
13457;SDS011;6801;53.018;11.560;2022-12-18T14:21:21;31.42;;;15.93;;
13457;SDS011;6801;53.018;11.560;2022-12-18T14:24:02;27.77;;;14.27;;
13457;SDS011;6801;53.018;11.560;2022-12-18T14:26:31;31.27;;;15.27;;
13457;SDS011;6801;53.018;11.560;2022-12-18T14:29:18;31.13;;;15.43;;
13457;SDS011;6801;53.018;11.560;2022-12-18T14:34:31;28.17;;;13.95;;
13457;SDS011;6801;53.018;11.560;2022-12-18T14:36:59;29.17;;;14.77;;
13457;SDS011;6801;53.018;11.560;2022-12-18T14:39:27;31.02;;;15.25;;
13457;SDS011;6801;53.018;11.560;2022-12-18T14:41:55;32.67;;;14.30;;
13457;SDS011;6801;53.018;11.560;2022-12-18T14:44:24;34.13;;;15.25;;
13457;SDS011;6801;53.018;11.560;2022-12-18T14:46:52;30.15;;;13.70;;
13457;SDS011;6801;53.018;11.560;2022-12-18T14:49:22;33.35;;;15.05;;
13457;SDS011;6801;53.018;11.560;2022-12-18T14:51:53;31.35;;;15.07;;
13457;SDS011;6801;53.018;11.560;2022-12-18T14:54:23;28.38;;;14.02;;
13457;SDS011;6801;53.018;11.560;2022-12-18T14:56:54;25.38;;;12.68;;
13457;SDS011;6801;53.018;11.560;2022-12-18T14:59:28;28.58;;;13.73;;
13457;SDS011;6801;53.018;11.560;2022-12-18T15:01:57;29.05;;;15.82;;
13457;SDS011;6801;53.018;11.560;2022-12-18T15:04:29;29.35;;;12.90;;
13457;SDS011;6801;53.018;11.560;2022-12-18T15:11:57;27.35;;;13.25;;
13457;SDS011;6801;53.018;11.560;2022-12-18T15:14:32;27.77;;;13.68;;
13457;SDS011;6801;53.018;11.560;2022-12-18T15:17:02;28.17;;;13.07;;